Time;durP1;ratioP1;P1;durP2;ratioP2;P2;SDS_P1;SDS_P2;PMS_P1;PMS_P2;Temp;Humidity;BMP_temperature;BMP_pressure;BME280_temperature;BME280_humidity;BME280_pressure;Samples;Min_cycle;Max_cycle;Signal;HPM_P1;HPM_P2
2023/04/14 00:00:05;;;;;;;6.25;5.10;;;;;;;;;;5112874;28;20070;-66
2023/04/14 00:02:38;;;;;;;6.20;4.78;;;;;;;;;;5115525;28;20060;-67
2023/04/14 00:05:07;;;;;;;6.20;4.40;;;;;;;;;;5117390;28;20094;-67
2023/04/14 00:07:34;;;;;;;9.77;5.13;;;;;;;;;;5117220;28;20040;-67
2023/04/14 00:10:02;;;;;;;6.03;4.68;;;;;;;;;;5116869;28;20031;-67
2023/04/14 00:12:29;;;;;;;9.20;4.90;;;;;;;;;;5116988;28;20108;-67
2023/04/14 00:14:57;;;;;;;7.10;4.70;;;;;;;;;;5115677;28;20047;-66
2023/04/14 00:17:24;;;;;;;7.72;5.10;;;;;;;;;;5116983;28;20066;-67
2023/04/14 00:19:52;;;;;;;7.55;5.03;;;;;;;;;;5116773;28;20109;-67
2023/04/14 00:22:20;;;;;;;7.22;5.00;;;;;;;;;;5116757;28;20127;-66
2023/04/14 00:24:49;;;;;;;8.13;5.38;;;;;;;;;;5116828;28;20063;-66
2023/04/14 00:27:17;;;;;;;7.70;5.10;;;;;;;;;;5116843;28;20442;-67
2023/04/14 00:29:44;;;;;;;7.13;4.95;;;;;;;;;;5116709;28;20044;-67
2023/04/14 00:32:12;;;;;;;7.45;5.00;;;;;;;;;;5115333;28;20089;-67
2023/04/14 00:34:39;;;;;;;7.38;4.97;;;;;;;;;;5115321;28;20082;-66
2023/04/14 00:37:07;;;;;;;8.70;5.00;;;;;;;;;;5116401;28;20449;-67
2023/04/14 00:39:35;;;;;;;8.70;4.75;;;;;;;;;;5116437;28;20482;-66
2023/04/14 00:42:02;;;;;;;7.53;5.47;;;;;;;;;;5115143;28;20044;-67
2023/04/14 00:44:30;;;;;;;7.03;4.95;;;;;;;;;;5115061;28;20035;-67
2023/04/14 00:46:58;;;;;;;6.35;4.85;;;;;;;;;;5116411;28;20039;-66
2023/04/14 00:49:28;;;;;;;6.97;5.35;;;;;;;;;;5115238;28;20097;-66
2023/04/14 00:51:56;;;;;;;7.53;5.50;;;;;;;;;;5114942;28;20085;-66
2023/04/14 00:54:26;;;;;;;7.53;5.28;;;;;;;;;;5114972;28;20040;-66
2023/04/14 00:56:56;;;;;;;9.90;5.47;;;;;;;;;;5114740;28;20051;-66
2023/04/14 00:59:24;;;;;;;7.93;5.60;;;;;;;;;;5116226;28;20048;-66
2023/04/14 01:01:52;;;;;;;8.68;5.30;;;;;;;;;;5114658;28;20051;-66
2023/04/14 01:04:19;;;;;;;7.95;5.15;;;;;;;;;;5114730;28;20046;-66
2023/04/14 01:06:47;;;;;;;8.10;4.88;;;;;;;;;;5115823;28;20043;-66
2023/04/14 01:09:15;;;;;;;6.63;5.22;;;;;;;;;;5114755;28;20408;-67
2023/04/14 01:11:54;;;;;;;8.48;5.50;;;;;;;;;;5114644;28;20035;-66
2023/04/14 01:14:41;;;;;;;6.28;5.13;;;;;;;;;;5113790;28;20143;-66
2023/04/14 01:17:08;;;;;;;;;;;;;;;;;;5114950;28;20131;-67
2023/04/14 01:19:52;;;;;;;7.82;5.32;;;;;;;;;;5114742;28;19969;-66
2023/04/14 01:22:21;;;;;;;7.75;5.28;;;;;;;;;;5115925;28;20044;-66
2023/04/14 01:25:07;;;;;;;6.95;5.45;;;;;;;;;;5097575;28;20440;-66
2023/04/14 01:27:55;;;;;;;7.35;5.82;;;;;;;;;;5115501;28;20157;-66
2023/04/14 01:30:30;;;;;;;7.38;5.40;;;;;;;;;;5098599;28;20044;-66
2023/04/14 01:32:59;;;;;;;6.93;5.40;;;;;;;;;;5114049;28;20063;-66
2023/04/14 01:35:33;;;;;;;8.30;5.20;;;;;;;;;;5114114;28;20504;-66
2023/04/14 01:38:04;;;;;;;7.05;5.03;;;;;;;;;;5113967;28;20134;-66
2023/04/14 01:40:33;;;;;;;7.35;5.47;;;;;;;;;;5114149;28;20086;-66
2023/04/14 01:43:10;;;;;;;6.68;5.25;;;;;;;;;;5113990;28;20050;-66
2023/04/14 01:45:41;;;;;;;7.40;5.63;;;;;;;;;;5113898;28;20069;-66
2023/04/14 01:48:11;;;;;;;7.65;5.80;;;;;;;;;;5114059;28;20408;-66
2023/04/14 01:50:40;;;;;;;8.13;6.18;;;;;;;;;;5113954;28;20050;-66
2023/04/14 01:53:08;;;;;;;11.13;6.93;;;;;;;;;;5113694;28;20032;-66
2023/04/14 01:55:37;;;;;;;10.00;7.25;;;;;;;;;;5113541;28;20051;-66
2023/04/14 01:58:06;;;;;;;9.02;7.10;;;;;;;;;;5113808;28;20039;-66
2023/04/14 02:00:35;;;;;;;9.15;7.10;;;;;;;;;;5113434;28;20501;-66
2023/04/14 02:03:05;;;;;;;8.88;6.85;;;;;;;;;;5113503;28;20044;-66
2023/04/14 02:05:34;;;;;;;9.45;6.60;;;;;;;;;;5114715;28;20050;-66
2023/04/14 02:08:03;;;;;;;9.82;6.72;;;;;;;;;;5113652;28;20039;-66
2023/04/14 02:10:31;;;;;;;9.50;7.00;;;;;;;;;;5113391;28;20044;-66
2023/04/14 02:12:59;;;;;;;10.02;7.65;;;;;;;;;;5113412;28;20039;-66
2023/04/14 02:15:28;;;;;;;12.70;7.35;;;;;;;;;;5113431;28;20585;-66
2023/04/14 02:17:57;;;;;;;10.63;7.63;;;;;;;;;;5113209;28;20044;-66
2023/04/14 02:20:25;;;;;;;9.95;7.55;;;;;;;;;;5113191;28;20082;-66
2023/04/14 02:22:53;;;;;;;11.32;8.15;;;;;;;;;;5114446;28;20039;-66
2023/04/14 02:25:23;;;;;;;10.23;7.93;;;;;;;;;;5112160;28;20146;-66
2023/04/14 02:27:57;;;;;;;15.23;8.73;;;;;;;;;;5113106;28;20100;-66
2023/04/14 02:30:31;;;;;;;11.43;8.25;;;;;;;;;;5113166;28;20082;-66
2023/04/14 02:33:05;;;;;;;12.57;9.05;;;;;;;;;;5114312;28;20411;-66
2023/04/14 02:35:38;;;;;;;13.10;9.05;;;;;;;;;;5113003;28;20126;-66
2023/04/14 02:38:11;;;;;;;10.93;8.13;;;;;;;;;;5096017;28;20047;-66
2023/04/14 02:40:40;;;;;;;12.63;9.00;;;;;;;;;;5112838;28;20118;-66
2023/04/14 02:43:11;;;;;;;15.23;8.95;;;;;;;;;;5112781;28;20043;-66
2023/04/14 02:45:41;;;;;;;16.52;9.55;;;;;;;;;;5112683;28;20126;-66
2023/04/14 02:48:13;;;;;;;14.75;8.88;;;;;;;;;;5114079;28;20145;-66
2023/04/14 02:50:43;;;;;;;12.32;9.20;;;;;;;;;;5114303;28;20040;-66
2023/04/14 02:53:18;;;;;;;15.65;9.90;;;;;;;;;;5112753;28;20592;-66
2023/04/14 02:55:47;;;;;;;13.70;9.98;;;;;;;;;;5112360;28;20054;-66
2023/04/14 02:58:16;;;;;;;12.50;9.20;;;;;;;;;;5112637;28;20048;-65
2023/04/14 03:00:45;;;;;;;13.27;10.00;;;;;;;;;;5112461;28;20063;-65
2023/04/14 03:03:14;;;;;;;15.13;10.55;;;;;;;;;;5112477;28;20044;-65
2023/04/14 03:05:43;;;;;;;15.18;10.32;;;;;;;;;;5112225;28;20414;-66
2023/04/14 03:08:14;;;;;;;15.82;10.68;;;;;;;;;;5112311;28;20130;-65
2023/04/14 03:10:45;;;;;;;14.18;10.20;;;;;;;;;;5112349;28;20039;-65
2023/04/14 03:13:15;;;;;;;14.50;10.75;;;;;;;;;;5112131;28;20488;-66
2023/04/14 03:15:44;;;;;;;15.15;10.70;;;;;;;;;;5112021;28;20052;-66
2023/04/14 03:18:14;;;;;;;14.43;10.52;;;;;;;;;;5095734;28;20048;-65
2023/04/14 03:20:44;;;;;;;15.70;10.77;;;;;;;;;;5112057;28;20469;-65
2023/04/14 03:23:13;;;;;;;16.90;10.02;;;;;;;;;;5111891;28;20073;-65
2023/04/14 03:25:48;;;;;;;16.67;10.13;;;;;;;;;;5112130;28;20043;-65
2023/04/14 03:28:23;;;;;;;17.17;10.63;;;;;;;;;;5113261;28;20036;-65
2023/04/14 03:30:52;;;;;;;12.55;9.57;;;;;;;;;;5111778;28;20047;-65
2023/04/14 03:33:26;;;;;;;14.63;10.30;;;;;;;;;;5111937;28;20567;-65
2023/04/14 03:35:57;;;;;;;11.80;9.35;;;;;;;;;;5111952;28;20043;-65
2023/04/14 03:38:27;;;;;;;15.90;10.90;;;;;;;;;;5111734;28;20071;-65
2023/04/14 03:40:58;;;;;;;14.05;9.95;;;;;;;;;;5111878;28;20493;-65
2023/04/14 03:43:28;;;;;;;13.27;10.10;;;;;;;;;;5111560;28;20054;-66
2023/04/14 03:46:04;;;;;;;14.07;9.90;;;;;;;;;;5111754;28;20131;-66
2023/04/14 03:48:33;;;;;;;15.02;10.55;;;;;;;;;;5112525;28;20116;-66
2023/04/14 03:51:03;;;;;;;14.23;10.70;;;;;;;;;;5095781;28;20036;-66
2023/04/14 03:53:33;;;;;;;14.90;10.20;;;;;;;;;;5112597;28;20412;-66
2023/04/14 03:56:02;;;;;;;12.85;10.10;;;;;;;;;;5112435;28;20068;-66
2023/04/14 03:58:31;;;;;;;15.38;10.70;;;;;;;;;;5108668;28;20058;-66
2023/04/14 04:00:59;;;;;;;16.75;10.95;;;;;;;;;;5108207;28;20474;-66
2023/04/14 04:03:27;;;;;;;18.05;12.30;;;;;;;;;;5108171;28;20048;-66
2023/04/14 04:05:57;;;;;;;23.05;14.25;;;;;;;;;;5091041;28;20044;-66
2023/04/14 04:08:25;;;;;;;23.58;14.85;;;;;;;;;;5108054;28;20044;-66
2023/04/14 04:10:54;;;;;;;21.35;12.68;;;;;;;;;;5092681;28;20119;-66
2023/04/14 04:13:23;;;;;;;23.02;15.52;;;;;;;;;;5108261;28;20113;-66
2023/04/14 04:15:52;;;;;;;15.80;11.38;;;;;;;;;;5108268;28;20461;-66
2023/04/14 04:18:21;;;;;;;16.42;11.43;;;;;;;;;;5108164;28;20506;-66
2023/04/14 04:20:49;;;;;;;15.57;11.23;;;;;;;;;;5108305;28;20069;-66
2023/04/14 04:23:17;;;;;;;14.57;10.77;;;;;;;;;;5108122;28;20476;-66
2023/04/14 04:25:46;;;;;;;16.73;11.10;;;;;;;;;;5092755;28;20051;-66
2023/04/14 04:28:26;;;;;;;15.80;11.20;;;;;;;;;;5108004;28;20570;-66
2023/04/14 04:30:57;;;;;;;16.48;10.90;;;;;;;;;;5107876;28;20043;-66
2023/04/14 04:33:27;;;;;;;18.73;11.55;;;;;;;;;;5090893;28;20040;-66
2023/04/14 04:35:55;;;;;;;17.17;10.95;;;;;;;;;;5092178;28;20444;-66
2023/04/14 04:38:28;;;;;;;14.43;10.82;;;;;;;;;;5108111;28;20161;-66
2023/04/14 04:40:56;;;;;;;20.13;10.25;;;;;;;;;;5108034;28;20044;-66
2023/04/14 04:43:27;;;;;;;14.48;10.35;;;;;;;;;;5090934;28;20048;-67
2023/04/14 04:45:57;;;;;;;12.40;9.63;;;;;;;;;;5090326;28;20413;-66
2023/04/14 04:48:27;;;;;;;15.13;9.95;;;;;;;;;;5108051;28;20400;-66
2023/04/14 04:50:54;;;;;;;17.60;10.60;;;;;;;;;;5111577;28;20063;-66
2023/04/14 04:53:21;;;;;;;15.63;9.75;;;;;;;;;;5111376;28;20040;-66
2023/04/14 04:55:49;;;;;;;13.95;9.65;;;;;;;;;;5111343;28;20052;-66
2023/04/14 04:58:16;;;;;;;12.48;10.15;;;;;;;;;;5077998;28;20105;-66
2023/04/14 05:00:44;;;;;;;12.80;9.40;;;;;;;;;;5075523;28;20405;-67
2023/04/14 05:03:11;;;;;;;12.95;8.38;;;;;;;;;;5075266;28;20044;-67
2023/04/14 05:05:39;;;;;;;13.38;9.32;;;;;;;;;;5073678;28;20075;-66
2023/04/14 05:08:07;;;;;;;14.48;9.15;;;;;;;;;;5075556;28;20386;-67
2023/04/14 05:10:35;;;;;;;12.82;9.15;;;;;;;;;;5075228;28;20508;-67
2023/04/14 05:13:03;;;;;;;12.63;8.27;;;;;;;;;;5057236;28;20040;-67
2023/04/14 05:15:31;;;;;;;12.95;8.88;;;;;;;;;;5075310;28;20102;-67
2023/04/14 05:17:58;;;;;;;12.88;8.93;;;;;;;;;;5075139;28;20604;-67
2023/04/14 05:20:26;;;;;;;10.40;8.90;;;;;;;;;;5075023;28;20111;-67
2023/04/14 05:22:53;;;;;;;13.13;8.23;;;;;;;;;;5074793;28;20060;-64
2023/04/14 05:25:21;;;;;;;12.52;7.80;;;;;;;;;;5082498;28;20041;-66
2023/04/14 05:27:48;;;;;;;10.32;7.75;;;;;;;;;;5089310;28;20040;-69
2023/04/14 05:30:15;;;;;;;9.43;7.15;;;;;;;;;;5095061;28;20058;-67
2023/04/14 05:32:43;;;;;;;9.80;6.90;;;;;;;;;;5095372;28;20044;-66
2023/04/14 05:35:10;;;;;;;9.30;7.18;;;;;;;;;;5095303;28;20040;-67
2023/04/14 05:37:38;;;;;;;13.07;7.90;;;;;;;;;;5094983;28;20075;-68
2023/04/14 05:40:06;;;;;;;7.90;6.35;;;;;;;;;;5095095;28;20498;-71
2023/04/14 05:42:33;;;;;;;9.45;6.80;;;;;;;;;;5095782;28;20376;-71
2023/04/14 05:45:00;;;;;;;9.05;7.30;;;;;;;;;;5094840;28;20063;-68
2023/04/14 05:47:28;;;;;;;10.68;7.75;;;;;;;;;;5094773;28;20040;-68
2023/04/14 05:49:57;;;;;;;8.10;6.32;;;;;;;;;;5094538;28;20551;-68
2023/04/14 05:52:24;;;;;;;6.65;5.55;;;;;;;;;;5094718;28;20040;-68
2023/04/14 05:54:52;;;;;;;7.82;5.65;;;;;;;;;;5088244;28;20036;-69
2023/04/14 05:57:20;;;;;;;7.25;6.10;;;;;;;;;;5091417;28;20048;-68
2023/04/14 05:59:48;;;;;;;9.77;6.22;;;;;;;;;;5092990;28;20042;-68
2023/04/14 06:02:15;;;;;;;6.55;5.70;;;;;;;;;;5094381;28;20065;-68
2023/04/14 06:04:43;;;;;;;9.55;6.50;;;;;;;;;;5079096;28;20044;-68
2023/04/14 06:07:10;;;;;;;10.48;5.70;;;;;;;;;;5094614;28;20514;-68
2023/04/14 06:09:38;;;;;;;7.43;5.70;;;;;;;;;;5094234;28;20039;-68
2023/04/14 06:12:05;;;;;;;7.22;6.03;;;;;;;;;;5094310;28;20106;-69
2023/04/14 06:14:33;;;;;;;7.70;5.97;;;;;;;;;;5092951;28;20142;-68
2023/04/14 06:17:00;;;;;;;8.98;5.40;;;;;;;;;;5092994;28;20131;-68
2023/04/14 06:19:27;;;;;;;8.38;6.32;;;;;;;;;;5094059;28;20405;-68
2023/04/14 06:21:55;;;;;;;7.10;5.60;;;;;;;;;;5093876;28;20123;-68
2023/04/14 06:24:22;;;;;;;6.05;5.10;;;;;;;;;;5094032;28;20036;-68
2023/04/14 06:26:50;;;;;;;8.70;5.38;;;;;;;;;;5093907;28;20047;-69
2023/04/14 06:29:18;;;;;;;7.85;4.97;;;;;;;;;;5093002;28;20036;-69
2023/04/14 06:31:45;;;;;;;7.15;5.20;;;;;;;;;;5093929;28;20046;-68
2023/04/14 06:34:13;;;;;;;6.10;4.80;;;;;;;;;;5093949;28;20044;-68
2023/04/14 06:36:40;;;;;;;4.93;4.43;;;;;;;;;;5093729;28;20123;-68
2023/04/14 06:39:08;;;;;;;6.55;4.68;;;;;;;;;;5080214;28;20560;-68
2023/04/14 06:41:35;;;;;;;5.57;4.32;;;;;;;;;;5078080;28;20043;-68
2023/04/14 06:44:04;;;;;;;6.32;5.10;;;;;;;;;;5087654;28;20040;-66
2023/04/14 06:46:34;;;;;;;7.45;4.78;;;;;;;;;;5092349;28;20204;-66
2023/04/14 06:49:02;;;;;;;6.63;4.72;;;;;;;;;;5093404;28;20551;-67
2023/04/14 06:51:31;;;;;;;7.13;5.38;;;;;;;;;;5093395;28;20040;-66
2023/04/14 06:53:58;;;;;;;7.60;4.75;;;;;;;;;;5093922;28;20048;-67
2023/04/14 06:56:27;;;;;;;6.53;4.65;;;;;;;;;;5075116;28;20055;-67
2023/04/14 06:58:54;;;;;;;6.57;4.78;;;;;;;;;;5093268;28;20074;-67
2023/04/14 07:01:22;;;;;;;8.68;6.07;;;;;;;;;;5093266;28;20040;-67
2023/04/14 07:03:49;;;;;;;4.95;4.05;;;;;;;;;;5093425;28;20032;-67
2023/04/14 07:06:17;;;;;;;5.95;4.80;;;;;;;;;;5093624;28;20068;-67
2023/04/14 07:08:45;;;;;;;7.65;4.38;;;;;;;;;;5093125;28;20085;-67
2023/04/14 07:11:12;;;;;;;9.77;5.57;;;;;;;;;;5092606;28;20044;-67
2023/04/14 07:13:40;;;;;;;6.07;4.38;;;;;;;;;;5093330;28;20047;-67
2023/04/14 07:16:08;;;;;;;5.85;4.25;;;;;;;;;;5092628;28;20043;-68
2023/04/14 07:18:35;;;;;;;9.15;4.60;;;;;;;;;;5092916;28;20126;-67
2023/04/14 07:21:03;;;;;;;6.80;4.45;;;;;;;;;;5093086;28;20044;-67
2023/04/14 07:23:32;;;;;;;6.88;4.57;;;;;;;;;;5092920;28;20043;-67
2023/04/14 07:26:00;;;;;;;7.70;6.18;;;;;;;;;;5093047;28;20047;-67
2023/04/14 07:28:28;;;;;;;9.38;6.35;;;;;;;;;;5093046;28;20119;-67
2023/04/14 07:30:55;;;;;;;6.78;4.93;;;;;;;;;;5091729;28;20040;-68
2023/04/14 07:33:24;;;;;;;5.72;4.20;;;;;;;;;;5075071;28;20051;-68
2023/04/14 07:35:52;;;;;;;7.60;4.63;;;;;;;;;;5093092;28;20481;-67
2023/04/14 07:38:31;;;;;;;7.05;4.65;;;;;;;;;;5073707;28;20479;-66
2023/04/14 07:41:00;;;;;;;6.93;4.82;;;;;;;;;;5072576;28;20056;-67
2023/04/14 07:43:33;;;;;;;9.00;4.97;;;;;;;;;;5072498;28;20035;-66
2023/04/14 07:46:05;;;;;;;9.75;4.63;;;;;;;;;;5072481;28;20090;-66
2023/04/14 07:48:34;;;;;;;5.03;4.20;;;;;;;;;;5055007;28;20055;-66
2023/04/14 07:51:03;;;;;;;6.07;4.47;;;;;;;;;;5072384;28;20513;-67
2023/04/14 07:53:31;;;;;;;5.80;4.40;;;;;;;;;;5072256;28;20115;-67
2023/04/14 07:55:59;;;;;;;7.03;4.65;;;;;;;;;;5070978;28;20072;-67
2023/04/14 07:58:26;;;;;;;9.55;4.68;;;;;;;;;;5072463;28;20076;-68
2023/04/14 08:00:56;;;;;;;6.45;4.55;;;;;;;;;;5072583;28;20036;-68
2023/04/14 08:03:23;;;;;;;9.45;4.80;;;;;;;;;;5054773;28;20040;-68
2023/04/14 08:05:51;;;;;;;6.68;4.85;;;;;;;;;;5072321;28;20409;-67
2023/04/14 08:08:19;;;;;;;6.68;4.25;;;;;;;;;;5071312;28;20108;-68
2023/04/14 08:10:46;;;;;;;9.00;4.88;;;;;;;;;;5072648;28;20119;-68
2023/04/14 08:13:13;;;;;;;9.13;5.22;;;;;;;;;;5072152;28;20076;-68
2023/04/14 08:15:41;;;;;;;9.02;4.47;;;;;;;;;;5072288;28;20037;-73
2023/04/14 08:18:08;;;;;;;10.48;4.90;;;;;;;;;;5072246;28;20044;-73
2023/04/14 08:20:36;;;;;;;6.15;4.60;;;;;;;;;;5071321;28;20533;-73
2023/04/14 08:23:04;;;;;;;12.18;5.20;;;;;;;;;;5073520;28;20040;-73
2023/04/14 08:25:32;;;;;;;10.05;5.10;;;;;;;;;;5076510;28;20454;-75
2023/04/14 08:27:59;;;;;;;6.75;4.63;;;;;;;;;;5076264;28;20040;-75
2023/04/14 08:30:27;;;;;;;8.38;4.88;;;;;;;;;;5074896;28;20044;-74
2023/04/14 08:32:55;;;;;;;7.13;4.05;;;;;;;;;;5076398;28;20044;-76
2023/04/14 08:35:25;;;;;;;5.63;4.03;;;;;;;;;;5075903;28;20063;-73
2023/04/14 08:38:06;;;;;;;5.15;4.00;;;;;;;;;;5075909;28;20071;-73
2023/04/14 08:40:37;;;;;;;6.05;4.07;;;;;;;;;;5075855;28;20040;-73
2023/04/14 08:43:06;;;;;;;6.28;4.40;;;;;;;;;;5076136;28;20102;-69
2023/04/14 08:45:33;;;;;;;7.57;4.22;;;;;;;;;;5075666;28;20424;-70
2023/04/14 08:48:02;;;;;;;11.35;4.75;;;;;;;;;;5075650;28;20048;-69
2023/04/14 08:50:35;;;;;;;4.95;3.40;;;;;;;;;;5075520;28;20036;-71
2023/04/14 08:53:05;;;;;;;7.53;4.30;;;;;;;;;;5075616;28;20051;-69
2023/04/14 08:55:33;;;;;;;6.40;4.15;;;;;;;;;;5074259;28;20378;-69
2023/04/14 08:58:01;;;;;;;6.63;3.80;;;;;;;;;;5075580;28;20044;-69
2023/04/14 09:00:29;;;;;;;6.40;4.20;;;;;;;;;;5075490;28;20033;-76
2023/04/14 09:02:57;;;;;;;7.70;3.70;;;;;;;;;;5075859;28;20033;-68
2023/04/14 09:05:25;;;;;;;7.28;3.92;;;;;;;;;;5082872;28;20036;-69
2023/04/14 09:07:54;;;;;;;4.68;3.53;;;;;;;;;;5093845;28;20036;-67
2023/04/14 09:10:22;;;;;;;7.78;3.60;;;;;;;;;;5095490;28;20047;-68
2023/04/14 09:12:50;;;;;;;4.57;3.47;;;;;;;;;;5095371;28;20091;-69
2023/04/14 09:15:19;;;;;;;6.07;3.80;;;;;;;;;;5095560;28;20564;-68
2023/04/14 09:17:46;;;;;;;5.97;3.58;;;;;;;;;;5092390;28;20448;-71
2023/04/14 09:20:14;;;;;;;6.60;3.95;;;;;;;;;;5095364;28;20040;-67
2023/04/14 09:23:03;;;;;;;7.68;4.15;;;;;;;;;;5095286;28;20040;-67
2023/04/14 09:25:31;;;;;;;6.93;4.30;;;;;;;;;;5077550;28;20131;-67
2023/04/14 09:27:58;;;;;;;7.57;4.75;;;;;;;;;;5095078;28;20042;-67
2023/04/14 09:30:26;;;;;;;7.30;4.20;;;;;;;;;;5095113;28;20115;-67
2023/04/14 09:32:53;;;;;;;9.63;4.30;;;;;;;;;;5077317;28;20044;-67
2023/04/14 09:35:21;;;;;;;7.07;4.93;;;;;;;;;;5094555;28;20040;-66
2023/04/14 09:37:48;;;;;;;12.15;8.35;;;;;;;;;;5095066;28;20048;-67
2023/04/14 09:40:29;;;;;;;7.15;6.10;;;;;;;;;;5094875;28;20055;-67
2023/04/14 09:42:57;;;;;;;8.35;5.10;;;;;;;;;;5094807;28;20046;-67
2023/04/14 09:45:43;;;;;;;11.20;4.25;;;;;;;;;;5094744;28;20496;-66
2023/04/14 09:48:12;;;;;;;6.65;3.55;;;;;;;;;;5094880;28;20036;-67
2023/04/14 09:50:57;;;;;;;6.10;3.92;;;;;;;;;;5094744;28;20036;-68
2023/04/14 09:53:28;;;;;;;5.60;2.92;;;;;;;;;;5094647;28;20109;-67
2023/04/14 09:55:56;;;;;;;6.13;3.03;;;;;;;;;;5094464;28;20044;-72
2023/04/14 09:58:24;;;;;;;6.68;3.00;;;;;;;;;;5094684;28;20040;-72
2023/04/14 10:00:56;;;;;;;6.78;3.90;;;;;;;;;;5094538;28;20040;-72
2023/04/14 10:03:33;;;;;;;10.00;4.30;;;;;;;;;;5094652;28;20040;-71
2023/04/14 10:06:03;;;;;;;9.27;4.53;;;;;;;;;;5094413;28;20055;-71
2023/04/14 10:08:38;;;;;;;5.47;3.40;;;;;;;;;;5093165;28;20044;-67
2023/04/14 10:11:24;;;;;;;7.68;4.03;;;;;;;;;;5094415;28;20066;-67
2023/04/14 10:13:54;;;;;;;9.48;5.65;;;;;;;;;;5094319;28;20143;-67
2023/04/14 10:16:22;;;;;;;6.50;3.97;;;;;;;;;;5072454;28;20043;-68
2023/04/14 10:18:50;;;;;;;7.10;3.90;;;;;;;;;;5094125;28;20060;-68
2023/04/14 10:21:21;;;;;;;5.90;3.80;;;;;;;;;;5094168;28;20054;-68
2023/04/14 10:23:48;;;;;;;11.88;7.85;;;;;;;;;;5094040;28;20486;-67
2023/04/14 10:26:16;;;;;;;4.85;4.25;;;;;;;;;;5094066;28;20043;-68
2023/04/14 10:28:51;;;;;;;6.10;4.18;;;;;;;;;;5093977;28;20040;-69
2023/04/14 10:31:24;;;;;;;6.90;3.95;;;;;;;;;;5084297;28;20090;-68
2023/04/14 10:33:53;;;;;;;4.93;3.85;;;;;;;;;;5073494;28;20044;-68
2023/04/14 10:36:24;;;;;;;9.23;3.67;;;;;;;;;;5072280;28;20041;-67
2023/04/14 10:38:58;;;;;;;6.85;4.05;;;;;;;;;;5072109;28;20528;-67
2023/04/14 10:41:26;;;;;;;6.05;3.85;;;;;;;;;;5073515;28;20040;-67
2023/04/14 10:43:54;;;;;;;4.72;3.80;;;;;;;;;;5073730;28;20099;-66
2023/04/14 10:46:23;;;;;;;8.75;4.38;;;;;;;;;;5081966;28;20038;-67
2023/04/14 10:48:51;;;;;;;6.97;3.70;;;;;;;;;;5084308;28;20043;-67
2023/04/14 10:51:20;;;;;;;5.22;4.07;;;;;;;;;;5087109;28;20037;-67
2023/04/14 10:53:54;;;;;;;4.68;3.75;;;;;;;;;;5084482;28;20140;-67
2023/04/14 10:56:23;;;;;;;7.22;4.30;;;;;;;;;;5093166;28;20051;-66
2023/04/14 10:58:55;;;;;;;9.63;3.80;;;;;;;;;;5091879;28;20052;-66
2023/04/14 11:01:24;;;;;;;6.22;4.20;;;;;;;;;;5093037;28;20036;-66
2023/04/14 11:03:54;;;;;;;6.22;3.90;;;;;;;;;;5079113;28;20055;-67
2023/04/14 11:06:41;;;;;;;6.80;4.90;;;;;;;;;;5093181;28;20063;-67
2023/04/14 11:09:27;;;;;;;6.05;4.47;;;;;;;;;;5093382;28;20044;-67
2023/04/14 11:11:56;;;;;;;6.22;3.70;;;;;;;;;;5093209;28;20050;-66
2023/04/14 11:14:27;;;;;;;10.68;4.78;;;;;;;;;;5092550;28;20070;-68
2023/04/14 11:16:58;;;;;;;5.90;4.00;;;;;;;;;;5092941;28;20044;-67
2023/04/14 11:19:31;;;;;;;8.75;4.10;;;;;;;;;;5087503;28;20047;-67
2023/04/14 11:21:59;;;;;;;4.82;3.90;;;;;;;;;;5081173;28;20463;-67
2023/04/14 11:24:27;;;;;;;9.32;4.60;;;;;;;;;;5076793;28;20052;-67
2023/04/14 11:26:55;;;;;;;6.82;4.20;;;;;;;;;;5086373;28;20558;-67
2023/04/14 11:29:23;;;;;;;4.90;3.70;;;;;;;;;;5072531;28;20075;-67
2023/04/14 11:32:01;;;;;;;8.48;3.80;;;;;;;;;;5072492;28;20445;-68
2023/04/14 11:34:28;;;;;;;5.22;4.15;;;;;;;;;;5074877;28;20044;-67
2023/04/14 11:36:56;;;;;;;6.18;4.00;;;;;;;;;;5072710;28;20032;-68
2023/04/14 11:39:25;;;;;;;6.85;4.10;;;;;;;;;;5072058;28;20490;-67
2023/04/14 11:41:52;;;;;;;5.40;3.65;;;;;;;;;;5072518;28;20041;-67
2023/04/14 11:44:20;;;;;;;6.90;3.80;;;;;;;;;;5072336;28;20053;-67
2023/04/14 11:46:49;;;;;;;5.43;3.80;;;;;;;;;;5079856;28;20037;-67
2023/04/14 11:49:16;;;;;;;8.68;4.50;;;;;;;;;;5067283;28;20402;-68
2023/04/14 11:51:45;;;;;;;6.07;4.32;;;;;;;;;;5072272;28;20478;-67
2023/04/14 11:54:13;;;;;;;6.82;4.25;;;;;;;;;;5072210;28;20535;-67
2023/04/14 11:56:40;;;;;;;7.47;3.90;;;;;;;;;;5088342;28;20056;-67
2023/04/14 11:59:08;;;;;;;17.98;3.83;;;;;;;;;;5088340;28;20044;-68
2023/04/14 12:01:36;;;;;;;21.15;4.90;;;;;;;;;;5072219;28;20091;-67
2023/04/14 12:04:05;;;;;;;21.40;5.40;;;;;;;;;;5073850;28;20040;-67
2023/04/14 12:06:35;;;;;;;16.33;4.90;;;;;;;;;;5086685;28;20036;-66
2023/04/14 12:09:07;;;;;;;23.83;5.90;;;;;;;;;;5080208;28;20036;-67
2023/04/14 12:11:35;;;;;;;15.68;5.68;;;;;;;;;;5087978;28;20040;-68
2023/04/14 12:14:03;;;;;;;14.02;5.45;;;;;;;;;;5080907;28;20398;-67
2023/04/14 12:16:58;;;;;;;12.73;6.47;;;;;;;;;;5082870;28;20036;-68
2023/04/14 12:19:26;;;;;;;14.73;6.68;;;;;;;;;;5065207;28;20049;-67
2023/04/14 12:21:53;;;;;;;14.93;8.23;;;;;;;;;;5081794;28;20079;-67
2023/04/14 12:24:21;;;;;;;13.18;7.07;;;;;;;;;;5079237;28;20041;-67
2023/04/14 12:26:48;;;;;;;18.27;7.05;;;;;;;;;;5077359;28;20467;-67
2023/04/14 12:29:19;;;;;;;11.93;6.65;;;;;;;;;;5087120;28;20044;-67
2023/04/14 12:31:46;;;;;;;27.83;7.45;;;;;;;;;;5091652;28;20043;-66
2023/04/14 12:34:16;;;;;;;20.90;8.30;;;;;;;;;;5091952;28;20090;-67
2023/04/14 12:36:51;;;;;;;12.98;7.82;;;;;;;;;;5091681;28;20500;-66
2023/04/14 12:39:22;;;;;;;13.80;8.43;;;;;;;;;;5073628;28;20055;-70
2023/04/14 12:41:50;;;;;;;14.95;9.70;;;;;;;;;;5074593;28;20045;-67
2023/04/14 12:44:19;;;;;;;22.42;12.85;;;;;;;;;;5072062;28;20052;-67
2023/04/14 12:46:48;;;;;;;17.17;12.85;;;;;;;;;;5079745;28;20057;-67
2023/04/14 12:49:29;;;;;;;15.80;10.18;;;;;;;;;;5092105;28;20124;-66
2023/04/14 12:51:57;;;;;;;16.65;9.98;;;;;;;;;;5092391;28;20037;-66
2023/04/14 12:54:24;;;;;;;11.80;8.48;;;;;;;;;;5073906;28;20068;-66
2023/04/14 12:56:52;;;;;;;12.70;8.25;;;;;;;;;;5090685;28;20044;-66
2023/04/14 12:59:20;;;;;;;12.27;7.60;;;;;;;;;;5081631;28;20067;-67
2023/04/14 13:01:47;;;;;;;14.93;8.98;;;;;;;;;;5062314;28;20078;-66
2023/04/14 13:04:15;;;;;;;12.68;8.43;;;;;;;;;;5081751;28;20036;-65
2023/04/14 13:06:43;;;;;;;17.55;9.13;;;;;;;;;;5081236;28;20119;-65
2023/04/14 13:09:10;;;;;;;16.83;8.32;;;;;;;;;;5079528;28;20114;-65
2023/04/14 13:11:38;;;;;;;16.00;9.88;;;;;;;;;;5085574;28;20135;-66
2023/04/14 13:14:05;;;;;;;10.77;8.00;;;;;;;;;;5079202;28;20024;-66
2023/04/14 13:16:33;;;;;;;14.85;8.60;;;;;;;;;;5085567;28;20043;-66
2023/04/14 13:19:01;;;;;;;14.48;7.90;;;;;;;;;;5082172;28;20494;-67
2023/04/14 13:21:29;;;;;;;11.60;7.05;;;;;;;;;;5088515;28;20094;-67
2023/04/14 13:23:57;;;;;;;16.13;7.20;;;;;;;;;;5086237;28;20043;-66
2023/04/14 13:26:24;;;;;;;84.93;9.88;;;;;;;;;;5075776;28;20032;-66
2023/04/14 13:28:52;;;;;;;14.85;4.93;;;;;;;;;;5077346;28;20040;-66
2023/04/14 13:31:20;;;;;;;13.98;5.20;;;;;;;;;;5077955;28;20036;-66
2023/04/14 13:33:47;;;;;;;20.00;5.13;;;;;;;;;;5081560;28;20044;-67
2023/04/14 13:36:15;;;;;;;11.55;5.00;;;;;;;;;;5072663;28;20094;-67
2023/04/14 13:38:43;;;;;;;11.25;4.70;;;;;;;;;;5075120;28;20063;-67
2023/04/14 13:41:10;;;;;;;27.55;6.93;;;;;;;;;;5085260;28;20032;-70
2023/04/14 13:43:37;;;;;;;10.10;5.40;;;;;;;;;;5081914;28;20044;-68
2023/04/14 13:46:05;;;;;;;12.38;5.40;;;;;;;;;;5079549;28;20044;-69
2023/04/14 13:48:33;;;;;;;13.68;4.80;;;;;;;;;;5078589;28;20040;-69
2023/04/14 13:51:00;;;;;;;14.45;5.30;;;;;;;;;;5059772;28;20040;-69
2023/04/14 13:53:28;;;;;;;11.07;5.20;;;;;;;;;;5076452;28;20040;-69
2023/04/14 13:55:55;;;;;;;15.10;5.57;;;;;;;;;;5094221;28;20052;-70
2023/04/14 13:58:24;;;;;;;11.30;5.38;;;;;;;;;;5094034;28;20485;-70
2023/04/14 14:00:51;;;;;;;8.88;4.75;;;;;;;;;;5076659;28;20180;-69
2023/04/14 14:03:19;;;;;;;16.92;5.35;;;;;;;;;;5094240;28;20036;-70
2023/04/14 14:05:47;;;;;;;12.07;5.75;;;;;;;;;;5094287;28;20472;-69
2023/04/14 14:08:15;;;;;;;10.55;5.10;;;;;;;;;;5093931;28;20044;-70
2023/04/14 14:10:42;;;;;;;15.48;5.70;;;;;;;;;;5090804;28;20397;-69
2023/04/14 14:13:10;;;;;;;7.90;5.32;;;;;;;;;;5080335;28;20036;-68
2023/04/14 14:15:38;;;;;;;7.47;5.18;;;;;;;;;;5073464;28;20041;-68
2023/04/14 14:18:05;;;;;;;11.77;4.85;;;;;;;;;;5073274;28;20040;-66
2023/04/14 14:20:33;;;;;;;10.05;4.80;;;;;;;;;;5073309;28;20115;-70
2023/04/14 14:23:01;;;;;;;6.88;4.25;;;;;;;;;;5080443;28;20098;-71
2023/04/14 14:25:29;;;;;;;11.35;4.78;;;;;;;;;;5093603;28;20402;-69
2023/04/14 14:27:57;;;;;;;8.02;4.03;;;;;;;;;;5075339;28;20394;-63
2023/04/14 14:30:24;;;;;;;10.38;4.15;;;;;;;;;;5093508;28;20482;-77
2023/04/14 14:32:52;;;;;;;8.77;3.42;;;;;;;;;;5059123;28;20043;-76
2023/04/14 14:35:19;;;;;;;8.98;3.05;;;;;;;;;;5093802;28;20040;-71
2023/04/14 14:37:47;;;;;;;10.07;3.38;;;;;;;;;;5093369;28;20665;-72
2023/04/14 14:40:14;;;;;;;11.57;2.65;;;;;;;;;;5093838;28;20382;-72
2023/04/14 14:42:43;;;;;;;7.10;2.42;;;;;;;;;;5093878;28;20040;-72
2023/04/14 14:45:11;;;;;;;10.93;2.80;;;;;;;;;;5094250;28;20040;-76
2023/04/14 14:47:39;;;;;;;4.95;2.08;;;;;;;;;;5093866;28;20089;-74